createdAt,value
2022-10-04T00:11:24.857Z,99.90
2022-10-04T00:22:15.086Z,99.90
2022-10-04T01:24:35.941Z,97.00
2022-10-04T01:27:04.964Z,98.10
2022-10-04T01:29:33.489Z,98.50
2022-10-04T01:32:02.804Z,97.50
2022-10-04T01:34:31.781Z,98.50
2022-10-04T01:37:00.985Z,99.50
2022-10-04T01:39:29.879Z,99.90
2022-10-04T01:42:05.080Z,99.90
2022-10-04T01:44:38.166Z,99.90
2022-10-04T01:47:10.151Z,99.90
2022-10-04T01:49:41.990Z,99.90
2022-10-04T01:52:16.292Z,99.90
2022-10-04T01:54:47.570Z,99.90
2022-10-04T01:57:19.496Z,99.90
2022-10-04T01:59:52.160Z,99.80
2022-10-04T02:02:26.602Z,99.60
2022-10-04T02:04:57.533Z,99.40
2022-10-04T02:07:28.244Z,98.60
2022-10-04T02:09:59.632Z,99.10
2022-10-04T02:12:31.835Z,97.60
2022-10-04T02:15:02.301Z,96.70
2022-10-04T02:17:32.850Z,96.80
2022-10-04T02:20:02.462Z,96.80
2022-10-04T02:22:30.883Z,97.70
2022-10-04T02:24:59.643Z,97.00
2022-10-04T02:27:31.307Z,97.70
2022-10-04T02:30:03.516Z,98.50
2022-10-04T02:32:50.955Z,99.60
2022-10-04T02:35:20.600Z,99.50
2022-10-04T02:37:51.057Z,99.00
2022-10-04T02:40:23.303Z,99.00
2022-10-04T02:43:00.418Z,98.90
2022-10-04T02:45:38.713Z,97.40
2022-10-04T02:48:19.351Z,98.00
2022-10-04T02:50:50.076Z,97.60
2022-10-04T02:53:23.387Z,98.50
2022-10-04T02:55:51.612Z,99.50
2022-10-04T02:58:24.362Z,99.90
2022-10-04T03:00:56.850Z,99.90
2022-10-04T03:03:26.910Z,99.90
2022-10-04T03:06:00.587Z,99.90
2022-10-04T03:10:59.210Z,99.90
2022-10-04T03:13:28.863Z,99.90
2022-10-04T03:15:56.900Z,99.70
2022-10-04T03:18:25.411Z,97.00
2022-10-04T03:20:53.807Z,97.20
2022-10-04T04:01:21.035Z,99.90
2022-10-04T04:04:06.926Z,99.90
2022-10-04T06:45:07.019Z,97.90
2022-10-04T06:47:47.512Z,98.70
2022-10-04T06:50:26.570Z,98.40
2022-10-04T06:53:16.457Z,97.80
2022-10-04T06:56:16.990Z,97.30
2022-10-04T06:59:13.702Z,96.70
2022-10-04T08:11:50.615Z,85.20
2022-10-04T08:14:28.892Z,85.40
2022-10-04T08:17:15.555Z,84.10
2022-10-04T08:19:54.343Z,84.00
2022-10-04T08:22:34.760Z,83.80
2022-10-04T08:25:12.266Z,83.70
2022-10-04T08:28:15.133Z,84.00
2022-10-04T08:31:02.728Z,83.10
2022-10-04T08:33:48.815Z,80.40
2022-10-04T08:36:28.382Z,82.70
2022-10-04T08:38:58.657Z,82.40
2022-10-04T08:41:59.055Z,83.40
2022-10-04T08:45:02.068Z,83.80
2022-10-04T08:48:22.512Z,79.50
2022-10-04T08:51:22.651Z,79.00
2022-10-04T08:54:27.896Z,75.50
2022-10-04T08:57:16.316Z,81.40
2022-10-04T09:00:15.849Z,78.90
2022-10-04T09:03:06.112Z,80.10
2022-10-04T09:06:00.068Z,75.80
2022-10-04T09:09:06.294Z,79.40
2022-10-04T09:11:58.485Z,79.90
2022-10-04T09:14:52.174Z,78.70
2022-10-04T09:17:23.005Z,73.40
2022-10-04T09:20:36.790Z,76.90
2022-10-04T09:23:10.144Z,78.50
2022-10-04T09:25:50.947Z,78.20
2022-10-04T09:28:39.071Z,76.10
2022-10-04T09:31:43.423Z,86.40
2022-10-04T09:34:37.238Z,66.70
2022-10-04T09:37:36.573Z,70.30
2022-10-04T09:40:58.518Z,65.70
2022-10-04T09:44:07.994Z,67.00
2022-10-04T09:47:04.413Z,63.40
2022-10-04T09:49:54.083Z,64.60
2022-10-04T09:52:38.919Z,63.50
2022-10-04T09:55:24.105Z,64.70
2022-10-04T09:58:14.907Z,64.70
2022-10-04T10:00:50.091Z,59.80
2022-10-04T10:03:48.067Z,62.00
2022-10-04T10:06:46.603Z,62.70
2022-10-04T10:09:48.454Z,60.00
2022-10-04T10:12:55.868Z,62.30
2022-10-04T10:15:32.658Z,60.20
2022-10-04T10:18:10.007Z,66.30
2022-10-04T10:20:56.692Z,62.50
2022-10-04T10:23:57.036Z,61.50
2022-10-04T10:26:42.295Z,59.30
2022-10-04T10:29:29.210Z,57.90
2022-10-04T10:32:16.464Z,60.00
2022-10-04T10:35:04.159Z,63.70
2022-10-04T10:37:44.497Z,61.90
2022-10-04T10:40:37.316Z,60.90
2022-10-04T10:43:31.280Z,58.60
2022-10-04T10:46:07.774Z,55.40
2022-10-04T10:48:58.524Z,60.60
2022-10-04T10:51:41.756Z,57.60
2022-10-04T10:54:46.158Z,58.60
2022-10-04T10:57:34.322Z,54.50
2022-10-04T11:00:21.189Z,59.40
2022-10-04T11:03:27.264Z,58.10
2022-10-04T11:06:25.109Z,54.70
2022-10-04T11:09:32.675Z,58.20
2022-10-04T11:12:29.395Z,55.90
2022-10-04T11:15:26.872Z,56.80
2022-10-04T11:18:24.054Z,53.30
2022-10-04T11:21:39.292Z,57.20
2022-10-04T11:24:44.978Z,51.50
2022-10-04T11:27:20.507Z,53.80
2022-10-04T11:30:00.097Z,53.10
2022-10-04T11:33:10.525Z,51.90
2022-10-04T11:36:14.226Z,47.20
2022-10-04T11:39:13.255Z,45.80
2022-10-04T11:41:52.163Z,50.50
2022-10-04T11:45:14.263Z,53.30
2022-10-04T11:47:58.346Z,48.80
2022-10-04T11:50:39.923Z,51.30
2022-10-04T11:53:56.532Z,50.60
2022-10-04T11:56:47.879Z,47.50
2022-10-04T11:59:29.617Z,47.60
2022-10-04T12:02:19.190Z,49.40
2022-10-04T12:05:41.630Z,51.70
2022-10-04T12:08:31.500Z,46.80
2022-10-04T12:11:25.487Z,47.50
2022-10-04T12:14:10.588Z,44.30
2022-10-04T12:17:09.481Z,47.90
2022-10-04T12:20:01.224Z,42.30
2022-10-04T12:22:55.097Z,41.30
2022-10-04T12:25:49.800Z,41.50
2022-10-04T12:29:03.036Z,41.50
2022-10-04T12:31:35.562Z,43.40
2022-10-04T12:34:17.707Z,47.90
2022-10-04T12:37:00.395Z,47.10
2022-10-04T12:39:40.884Z,46.80
2022-10-04T12:42:20.577Z,45.90
2022-10-04T12:45:20.071Z,46.70
2022-10-04T12:48:13.331Z,44.40
2022-10-04T12:51:01.035Z,40.60
2022-10-04T12:53:41.328Z,43.30
2022-10-04T12:56:21.817Z,44.70
2022-10-04T12:59:11.799Z,43.90
2022-10-04T13:01:54.920Z,40.40
2022-10-04T13:04:36.215Z,42.00
2022-10-04T13:07:34.003Z,44.00
2022-10-04T13:10:24.570Z,42.90
2022-10-04T13:13:24.097Z,42.30
2022-10-04T13:18:57.467Z,42.50
2022-10-04T13:22:00.380Z,62.00
2022-10-04T13:24:54.910Z,42.60
2022-10-04T13:27:31.761Z,43.00
2022-10-04T13:30:05.538Z,41.50
2022-10-04T13:32:43.302Z,41.60
2022-10-04T13:35:21.329Z,41.00
2022-10-04T13:38:02.180Z,39.90
2022-10-04T14:16:01.476Z,33.70
2022-10-04T14:19:08.319Z,28.40
2022-10-04T14:22:11.718Z,28.90
2022-10-04T14:25:29.667Z,26.60
2022-10-04T14:31:03.841Z,17.90
2022-10-04T14:33:49.895Z,19.60
2022-10-04T15:09:19.193Z,40.90
2022-10-04T15:12:21.730Z,30.60
2022-10-04T15:30:54.650Z,27.30
2022-10-04T15:33:33.924Z,29.80
